Terminal Aerodrome Forecast
Issued by NWS Tuscon, AZ

Home | Current Version | Previous Version | Text Only | Print | Product List | Glossary On
Versions: 1 2 3 4 5 6 7 8 9 10 11 12 13 14 15 16 17
000
FTUS45 KTWC 051330 AAA
TAFTUS
TAF AMD
KTUS 051330Z 0514/0612 17007KT P6SM -SHRA SCT070 BKN110 OVC200
     FM051500 VRB03KT P6SM SCT110 BKN200
     FM052000 20009KT P6SM -SHRA SCT050 BKN070 BKN110
     FM060200 18006KT P6SM VCSH SCT070 BKN110 OVC200
     FM060500 14007KT P6SM SCT120 BKN200=

USA.gov is the U.S. government's official web portal to all federal, state and local government web resources and services.